Latest Weather Observations for Rhyll

IDV60801

Issued at 8:35 pm EDT Sunday 23 November 2014 (issued every 30 minutes, with the page automatically refreshed every 10 minutes)

About weather observations | Map of weather stations | Latest weather observations for VIC | Other Formats
Station Details ID: 086373 Name: RHYLL Lat: -38.46 Lon: 145.31 Height: 13.4 m
Data from the previous 72 hours. | See also: Recent months at Rhyll
Date/Time
EDT
Temp
°C
App
Temp
°C
Dew
Point
Rel
Hum
%
Delta-T
°C
Wind Press
QNH
hPa
Press
MSL
hPa
Rain
since 9 am
mm
Dir
 
Spd
km/h
Gust
km/h
Spd
kts
Gust
kts
23/08:30pm 16.4 14.0 10.0 66 3.4 ESE 13 19 7 10 1013.7 1013.7 0.0
23/08:00pm 16.5 14.7 9.4 63 3.7 SE 9 19 5 10 1013.6 1013.6 0.0
23/07:30pm 16.6 15.1 10.5 67 3.2 SE 9 17 5 9 1013.6 1013.6 0.0
23/07:00pm 16.9 15.7 10.3 65 3.5 SSE 7 13 4 7 1013.6 1013.6 0.0
23/06:30pm 17.0 15.6 10.8 67 3.3 SE 9 15 5 8 1013.3 1013.3 0.0
23/06:00pm 17.2 16.0 11.5 69 3.1 SE 9 17 5 9 1013.2 1013.2 0.0
23/05:30pm 17.6 16.1 11.9 69 3.1 SE 11 15 6 8 1012.9 1012.9 0.0
23/05:00pm 18.3 16.3 11.4 64 3.8 SSE 13 19 7 10 1012.5 1012.5 0.0
23/04:30pm 18.6 16.6 11.4 63 3.9 SE 13 19 7 10 1012.2 1012.2 0.0
23/04:00pm 20.5 18.6 11.7 57 4.9 S 13 19 7 10 1012.2 1012.2 0.0
23/03:30pm 20.7 18.9 13.4 63 4.2 S 15 20 8 11 1012.2 1012.2 0.0
23/03:00pm 21.6 20.2 13.5 60 4.7 S 13 17 7 9 1012.2 1012.2 0.0
23/02:30pm 22.0 20.6 13.4 58 5.0 S 13 17 7 9 1012.0 1012.0 0.0
23/02:00pm 20.5 18.9 11.4 56 5.0 S 11 17 6 9 1012.1 1012.1 0.0
23/01:30pm 22.0 21.4 14.6 63 4.4 S 11 15 6 8 1012.1 1012.1 0.0
23/01:00pm 20.5 19.8 13.2 63 4.2 S 9 13 5 7 1012.3 1012.3 0.0
23/12:30pm 21.1 20.8 14.5 66 3.9 S 9 15 5 8 1012.4 1012.4 0.0
23/12:00pm 20.7 20.2 13.9 65 3.9 S 9 17 5 9 1012.5 1012.5 0.0
23/11:30am 20.6 19.8 14.0 66 3.8 S 11 17 6 9 1012.5 1012.5 0.0
23/11:00am 19.8 18.8 13.3 66 3.7 S 11 17 6 9 1012.7 1012.7 0.0
23/10:30am 21.2 21.4 14.8 67 3.8 S 7 13 4 7 1012.9 1012.9 0.0
23/10:00am 20.1 20.1 14.2 69 3.4 S 7 13 4 7 1012.8 1012.8 0.0
23/09:30am 19.7 19.9 14.3 71 3.1 S 6 11 3 6 1012.9 1012.9 0.0
23/09:00am 18.8 18.8 13.6 72 3.0 SSW 6 9 3 5 1012.9 1012.9 0.0
23/08:30am 17.5 17.2 13.2 76 2.4 SW 7 13 4 7 1012.7 1012.7 0.0
23/08:00am 16.5 16.4 13.2 81 1.8 W 6 9 3 5 1012.6 1012.6 0.0
23/07:30am 16.1 16.0 13.4 84 1.5 WSW 6 11 3 6 1012.3 1012.3 0.0
23/07:00am 15.5 16.0 13.9 90 0.9 WSW 4 7 2 4 1012.1 1012.1 0.0
23/06:30am 15.3 15.7 13.7 90 0.9 W 4 6 2 3 1011.7 1011.7 0.0
23/06:00am 15.3 15.7 13.7 90 0.9 W 4 6 2 3 1011.5 1011.5 0.0
23/05:30am 15.7 15.8 13.9 89 1.0 W 6 9 3 5 1011.2 1011.2 0.0
23/05:00am 15.7 15.6 13.9 89 1.0 WSW 7 13 4 7 1010.9 1010.9 0.0
23/04:30am 16.0 16.1 14.0 88 1.1 WSW 6 13 3 7 1010.6 1010.6 0.0
23/04:00am 16.0 15.9 13.8 87 1.2 WSW 7 17 4 9 1010.1 1010.1 0.0
23/03:30am 16.1 15.2 13.8 86 1.3 WSW 11 22 6 12 1010.0 1010.0 0.0
23/03:00am 16.2 15.2 13.5 84 1.5 WSW 11 17 6 9 1009.8 1009.8 0.0
23/02:30am 16.2 15.5 13.3 83 1.6 WSW 9 15 5 8 1009.7 1009.7 0.0
23/02:00am 16.4 15.7 13.1 81 1.8 WSW 9 19 5 10 1009.6 1009.6 0.0
23/01:30am 16.1 15.7 13.0 82 1.7 W 7 13 4 7 1009.8 1009.8 0.0
23/01:00am 16.0 15.7 12.6 80 1.9 W 6 13 3 7 1009.4 1009.4 0.0
23/12:30am 16.1 16.0 12.1 77 2.2 W 4 9 2 5 1009.2 1009.2 0.0
23/12:00am 16.7 16.2 12.0 74 2.6 W 6 11 3 6 1008.6 1008.6 0.0
 
Date/Time
EDT
Temp
°C
App
Temp
°C
Dew
Point
Rel
Hum
%
Delta-T
°C
Wind Press
QNH
hPa
Press
MSL
hPa
Rain
since 9 am
mm
Dir
 
Spd
km/h
Gust
km/h
Spd
kts
Gust
kts
22/11:30pm 17.1 16.4 12.0 72 2.8 W 7 13 4 7 1008.6 1008.6 0.0
22/11:00pm 17.6 17.0 12.3 71 2.9 WSW 7 15 4 8 1008.5 1008.5 0.0
22/10:30pm 18.1 17.6 12.5 70 3.1 WSW 7 13 4 7 1008.1 1008.1 0.0
22/10:00pm 18.7 18.1 12.2 66 3.6 WSW 7 15 4 8 1007.5 1007.5 0.0
22/09:30pm 19.3 17.9 12.3 64 3.9 W 11 19 6 10 1006.9 1006.9 0.0
22/09:00pm 20.5 18.4 12.5 60 4.5 WSW 15 26 8 14 1006.0 1006.0 0.0
22/08:30pm 21.2 19.8 12.3 57 5.0 SW 11 22 6 12 1005.6 1005.6 0.0
22/08:00pm 23.1 20.3 13.3 54 5.7 WSW 20 39 11 21 1006.6 1006.6 0.0
22/07:58pm 23.9 21.2 13.4 51 6.1 WSW 20 39 11 21 1006.8 1006.8 0.0
22/07:30pm 24.6 21.8 14.4 53 6.0 NNW 22 30 12 16 1004.7 1004.7 0.0
22/07:00pm 26.3 21.3 13.4 45 7.6 N 32 37 17 20 1003.8 1003.7 0.0
22/06:30pm 26.1 21.5 13.6 46 7.4 N 30 39 16 21 1003.8 1003.7 0.0
22/06:00pm 25.9 23.4 14.1 48 7.0 N 20 30 11 16 1004.6 1004.6 0.0
22/05:30pm 26.5 24.1 13.9 45 7.5 N 19 26 10 14 1005.0 1005.0 0.0
22/05:00pm 25.9 21.9 13.1 45 7.5 NNW 26 32 14 17 1005.2 1005.2 0.0
22/04:30pm 25.6 21.6 13.1 46 7.3 NNW 26 35 14 19 1005.5 1005.5 0.0
22/04:00pm 25.6 21.7 14.4 50 6.7 NNW 28 41 15 22 1005.9 1005.9 0.0
22/03:30pm 25.8 22.5 14.0 48 7.0 NNW 24 33 13 18 1006.4 1006.4 0.0
22/03:00pm 24.9 22.1 13.1 48 6.9 NNW 20 28 11 15 1006.8 1006.8 0.0
22/02:30pm 24.5 20.9 13.1 49 6.6 N 24 30 13 16 1006.9 1006.9 0.0
22/02:00pm 24.2 20.5 12.8 49 6.6 N 24 32 13 17 1007.4 1007.4 0.0
22/01:30pm 24.6 21.0 13.2 49 6.6 NNW 24 37 13 20 1007.9 1007.9 0.0
22/01:00pm 23.7 19.1 12.4 49 6.5 N 28 35 15 19 1008.1 1008.1 0.0
22/12:44pm 22.9 18.2 11.9 50 6.2 N 28 50 15 27 1008.2 1008.2 0.0
22/12:30pm 22.1 19.7 14.5 62 4.5 N 20 28 11 15 1008.4 1008.4 0.0
22/12:00pm 21.9 22.7 16.4 71 3.3 N 7 15 4 8 1009.3 1009.3 0.0
22/11:30am 19.9 17.5 14.5 71 3.1 N 20 24 11 13 1009.9 1009.9 0.0
22/11:00am 19.8 19.1 14.4 71 3.1 NNE 11 15 6 8 1009.8 1009.8 0.0
22/10:30am 17.9 16.7 14.0 78 2.2 NNE 13 19 7 10 1010.2 1010.2 0.0
22/10:00am 17.8 16.1 13.7 77 2.3 NE 15 19 8 10 1010.5 1010.5 0.0
22/09:30am 16.9 16.8 13.4 80 2.0 NNE 6 13 3 7 1011.0 1011.0 0.0
22/09:00am 16.5 15.9 13.4 82 1.7 NNE 9 17 5 9 1011.0 1011.0 0.0
22/08:30am 15.6 14.3 12.5 82 1.7 N 11 15 6 8 1011.5 1011.5 0.0
22/08:00am 16.1 13.4 13.4 84 1.5 NNE 20 22 11 12 1010.6 1010.6 0.0
22/07:30am 14.9 11.9 12.6 86 1.3 NE 20 24 11 13 1010.6 1010.6 0.0
22/07:00am 14.5 13.4 12.0 85 1.4 NNE 9 15 5 8 1010.9 1010.9 0.0
22/06:30am 14.4 12.5 11.7 84 1.4 NNE 13 19 7 10 1010.6 1010.6 0.0
22/06:00am 14.3 11.2 11.6 84 1.4 NNE 19 24 10 13 1010.1 1010.1 0.0
22/05:30am 14.3 12.0 11.6 84 1.4 NNE 15 22 8 12 1009.8 1009.8 0.0
22/05:00am 14.1 12.5 11.6 85 1.3 NNE 11 15 6 8 1009.9 1009.9 0.0
22/04:30am 14.2 13.0 11.5 84 1.4 N 9 11 5 6 1010.0 1010.0 0.0
22/04:00am 14.2 13.4 11.7 85 1.3 NNE 7 15 4 8 1010.0 1010.0 0.0
22/03:30am 13.7 12.4 11.4 86 1.2 NE 9 11 5 6 1010.1 1010.1 0.0
22/03:00am 13.3 11.7 11.4 88 1.0 ENE 11 13 6 7 1010.1 1010.1 0.0
22/02:30am 13.0 12.0 10.9 87 1.1 E 7 11 4 6 1010.5 1010.5 0.0
22/02:00am 13.1 12.0 10.8 86 1.2 E 7 11 4 6 1011.0 1011.0 0.0
22/01:30am 13.1 11.6 10.6 85 1.3 E 9 17 5 9 1011.6 1011.6 0.0
22/01:00am 13.4 11.9 10.6 83 1.5 ESE 9 11 5 6 1012.1 1012.1 0.0
22/12:30am 13.8 12.4 10.8 82 1.6 ESE 9 13 5 7 1012.6 1012.6 0.0
22/12:00am 13.9 11.6 10.3 79 1.9 ESE 13 15 7 8 1012.6 1012.6 0.0
 
Date/Time
EDT
Temp
°C
App
Temp
°C
Dew
Point
Rel
Hum
%
Delta-T
°C
Wind Press
QNH
hPa
Press
MSL
hPa
Rain
since 9 am
mm
Dir
 
Spd
km/h
Gust
km/h
Spd
kts
Gust
kts
21/11:30pm 14.2 11.2 10.6 79 1.9 ESE 17 20 9 11 1012.8 1012.8 0.0
21/11:00pm 14.2 12.4 10.8 80 1.8 ESE 11 20 6 11 1013.0 1013.0 0.0
21/10:30pm 14.3 12.8 10.7 79 1.9 SE 9 15 5 8 1013.1 1013.1 0.0
21/10:00pm 13.9 12.7 10.3 79 1.9 SE 7 15 4 8 1013.4 1013.4 0.0
21/09:30pm 13.7 12.6 10.1 79 1.9 SE 6 13 3 7 1013.4 1013.4 0.0
21/09:00pm 13.6 11.9 10.0 79 1.9 SSE 9 17 5 9 1012.8 1012.8 0.0
21/08:30pm 13.6 12.2 9.6 77 2.0 S 7 13 4 7 1012.7 1012.7 0.0
21/08:00pm 14.4 13.0 9.4 72 2.6 S 7 11 4 6 1012.5 1012.5 0.0
21/07:30pm 16.3 15.1 10.2 67 3.2 S 7 11 4 6 1012.3 1012.3 0.0
21/07:00pm 16.7 15.7 10.3 66 3.4 S 6 13 3 7 1011.9 1011.9 0.0
21/06:30pm 17.1 16.0 10.5 65 3.5 S 7 15 4 8 1011.7 1011.7 0.0
21/06:00pm 17.3 16.2 10.7 65 3.5 S 7 17 4 9 1011.7 1011.7 0.0
21/05:30pm 17.6 16.4 10.2 62 3.9 S 7 15 4 8 1011.6 1011.6 0.0
21/05:00pm 17.8 16.5 11.4 66 3.5 S 9 15 5 8 1011.6 1011.6 0.0
21/04:30pm 17.4 15.6 11.0 66 3.4 S 11 22 6 12 1011.5 1011.5 0.0
21/04:00pm 18.7 17.8 12.5 67 3.5 S 9 19 5 10 1011.6 1011.6 0.0
21/03:30pm 17.7 15.8 11.9 69 3.2 SSW 13 22 7 12 1011.7 1011.7 0.0
21/03:00pm 17.6 15.0 11.9 69 3.1 SSW 17 28 9 15 1011.7 1011.7 0.0
21/02:30pm 18.1 16.0 12.5 70 3.1 SSW 15 28 8 15 1011.7 1011.7 0.0
21/02:00pm 18.2 16.4 12.0 67 3.4 SSW 13 24 7 13 1011.7 1011.7 0.0
21/01:30pm 17.5 15.0 11.1 66 3.5 SSW 15 28 8 15 1011.6 1011.6 0.0
21/01:00pm 18.2 17.3 11.3 64 3.8 WSW 7 15 4 8 1011.6 1011.6 0.0
21/12:30pm 18.0 16.8 11.6 66 3.5 WSW 9 19 5 10 1011.6 1011.6 0.0
21/12:00pm 17.0 15.2 10.8 67 3.3 SW 11 20 6 11 1011.7 1011.7 0.0
21/11:30am 16.9 14.8 11.2 69 3.1 WSW 13 22 7 12 1011.8 1011.8 0.0
21/11:00am 16.4 14.0 11.3 72 2.8 WSW 15 28 8 15 1011.7 1011.7 0.0
21/10:30am 16.3 13.7 10.6 69 3.0 WSW 15 24 8 13 1011.1 1011.1 0.0
21/10:00am 16.5 14.4 11.2 71 2.9 WSW 13 22 7 12 1010.9 1010.9 0.0
21/09:30am 15.9 13.4 11.1 73 2.6 WSW 15 22 8 12 1010.8 1010.8 0.0
21/09:00am 15.6 13.6 11.6 77 2.2 WSW 13 26 7 14 1010.5 1010.5 4.8
21/08:30am 15.2 13.0 12.2 82 1.6 SW 15 24 8 13 1010.3 1010.3 4.8
21/08:00am 14.9 13.0 13.1 89 1.0 WSW 15 28 8 15 1009.7 1009.7 4.8
21/07:30am 14.4 13.7 13.3 93 0.6 WSW 9 20 5 11 1008.8 1008.8 4.8
21/07:00am 14.3 13.3 13.3 94 0.6 WSW 11 19 6 10 1008.2 1008.2 4.8
21/06:30am 14.7 12.8 13.1 90 0.9 WSW 15 24 8 13 1007.9 1007.9 4.8
21/06:00am 15.4 14.8 13.4 88 1.1 W 9 19 5 10 1007.3 1007.3 4.8
21/05:30am 15.4 14.1 13.6 89 1.0 WSW 13 28 7 15 1006.9 1006.9 4.8
21/05:00am 15.4 13.8 13.8 90 0.9 WSW 15 26 8 14 1006.6 1006.6 4.8
21/04:30am 15.4 13.3 13.6 89 1.0 WSW 17 32 9 17 1006.2 1006.2 4.8
21/04:00am 15.4 13.4 13.8 90 0.9 WSW 17 28 9 15 1005.7 1005.7 4.6
21/03:30am 15.6 13.6 14.0 90 0.9 SW 17 30 9 16 1005.2 1005.2 4.6
21/03:00am 15.6 14.0 14.0 90 0.9 WSW 15 26 8 14 1005.3 1005.3 4.6
21/02:30am 15.7 13.4 14.1 90 0.9 SW 19 26 10 14 1005.1 1005.1 4.6
21/02:00am 16.2 13.7 14.0 87 1.3 SW 20 33 11 18 1005.1 1005.1 4.6
21/01:30am 18.2 19.7 16.7 91 0.9 W 4 11 2 6 1004.6 1004.6 4.6
21/01:00am 18.2 17.9 16.5 90 1.0 NNW 13 17 7 9 1004.4 1004.3 4.6
21/12:30am 18.4 16.5 16.6 89 1.1 N 22 26 12 14 1004.4 1004.3 4.6
21/12:00am 18.5 16.9 16.5 88 1.2 NNW 20 24 11 13 1004.7 1004.7 4.6
 
Date/Time
EDT
Temp
°C
App
Temp
°C
Dew
Point
Rel
Hum
%
Delta-T
°C
Wind Press
QNH
hPa
Press
MSL
hPa
Rain
since 9 am
mm
Dir
 
Spd
km/h
Gust
km/h
Spd
kts
Gust
kts
20/11:30pm 18.9 16.2 16.7 87 1.3 N 26 32 14 17 1004.8 1004.8 4.6
20/11:00pm 18.7 16.9 16.9 89 1.1 NNW 22 28 12 15 1005.2 1005.2 4.6
20/10:30pm 18.8 15.8 16.9 89 1.1 N 28 33 15 18 1005.2 1005.2 4.6
20/10:00pm 18.9 17.2 17.2 90 1.0 N 22 30 12 16 1005.4 1005.4 4.6
20/09:30pm 18.3 17.7 17.5 95 0.5 NNE 17 22 9 12 1005.8 1005.8 4.6
20/09:00pm 18.2 15.4 17.4 95 0.5 NE 28 32 15 17 1005.7 1005.7 4.6

Other Formats:

Comma delimited format used in spreadsheet applications
http://www.bom.gov.au/fwo/IDV60801/IDV60801.94892.axf

JavaScript Object Notation format (JSON) in row-major order
http://www.bom.gov.au/fwo/IDV60801/IDV60801.94892.json